AirNav   TITAN Aviation Fuels
 
 951 users online  

TE86 Heritage Airfield
New Berlin, Texas, USA

GOING TO NEW BERLIN?


FAA INFORMATION EFFECTIVE 02 DECEMBER 2021

Location

FAA Identifier: TE86
Lat/Long: 29-26-40.0000N 098-06-46.0000W
29-26.666667N 098-06.766667W
29.4444444,-98.1127778
(estimated)
Elevation: 555 ft. / 169 m (estimated)
Variation: 07E (1995)
From city: 3 miles SW of NEW BERLIN, TX
Time zone: UTC -6 (UTC -5 during Daylight Saving Time)
Zip code: 78121

Airport Operations

Airport use: Private use. Permission required prior to landing
Activation date: 08/2000
Control tower: no
ARTCC: HOUSTON CENTER
FSS: SAN ANGELO FLIGHT SERVICE STATION
Attendance: DAWN-DUSK
Wind indicator: yes
Segmented circle: no

Airport Communications

WX ASOS at BAZ (16 nm N): 119.325 (830-629-7979)
WX ASOS at SAT (19 nm W): PHONE 210-805-5583
WX ASOS at SSF (20 nm W): PHONE 210-927-9391
  • MULTICOM / CTAF 122.9MHZ

Nearby radio navigation aids

VOR radial/distance  VOR name  Freq  Var
RNDr111/10.1RANDOLPH VORTAC112.3005E
SSFr048/(20.6)STINSON VOR108.4009E
SATr115/21.8SAN ANTONIO VORTAC116.8008E

Airport Services

Runway Information

Runway 17/35

Dimensions: 3100 x 70 ft. / 945 x 21 m
Surface: turf
RUNWAY 17  RUNWAY 35
Traffic pattern: leftright
Obstructions: trees15 ft. fence, 200 ft. from runway

Airport Ownership and Management from official FAA records

Ownership: Privately-owned
OWNER: TEXAS HERITAGE PROPERTY OWNERS ASSOCIATION, INC.
Owner: TEXAS HERITAGE PROPERTY OWNERS ASSN
P.O. BOX 23
LAVERNIA, TX 78121
Phone (210) 414-7445
Manager: DAN KELLY
343 TEXAS HERITAGE DRIVE
LAVERNIA, TX 78121
Phone (830) 391-4120

Airport Operational Statistics

Aircraft based on the field: 23
Single engine airplanes: 23
    

Additional Remarks

FOR CD CTC SAN ANTONIO APCH AT 210-805-5516.

Instrument Procedures

There are no published instrument procedures at TE86.

Some nearby airports with instrument procedures:

KRND - Randolph Air Force Base (10 nm NW)
KBAZ - New Braunfels National Airport (16 nm N)
KSAT - San Antonio International Airport (19 nm W)
KSSF - Stinson Municipal Airport (20 nm W)
KSKF - Kelly Field Airport (25 nm W)
 
Loc | Ops | Rwys | IFR | FBO | Links
Com | Nav | Svcs | Stats | Notes
Area around TE86 (Heritage Airfield)
 
Road maps at: MapQuest Bing Google
 
Aerial photo
WARNING: Photo may not be current or correct
Aerial photo of TE86 (Heritage Airfield)
Photo by Brian Cook
Photo taken 18-Oct-2017

Do you have a better or more recent aerial photo of Heritage Airfield that you would like to share? If so, please send us your photo.

 
Sectional chart

 
Airport distance calculator
Flying to Heritage Airfield? Find the distance to fly.

From to TE86

Sunrise and sunset
Times for 03-Dec-2021
 Local
(UTC-6)
 Zulu
(UTC)
Morning civil twilight06:4612:46
Sunrise07:1213:12
Sunset17:3223:32
Evening civil twilight17:5823:58

Current date and time
Zulu (UTC)  03-Dec-2021 23:55:57
Local (UTC-6)  03-Dec-2021 17:55:57
 
METAR
KRND 
9nm NW 
032256Z AUTO 13007KT 10SM CLR 25/18 A2997 RMK AO2 SLP142 T02450184
KSEQ 
13nm NE 
032258Z AUTO 17005KT 10SM CLR 24/18 A3002 RMK AO2 SLP163 T02370178
KBAZ 
17nm N 
032251Z AUTO 17007KT 10SM CLR 25/18 A2998 RMK AO2 SLP144 T02500178
KSAT 
19nm W 
032251Z 12009KT 10SM FEW035 FEW120 24/18 A2999 RMK AO2 SLP138 T02440183
KSSF 
20nm W 
032253Z 12006KT 10SM CLR 27/18 A2995 RMK AO2 SLP133 T02720178
TAF
KRND 
9nm NW 
031700Z 0317/0423 VRB06KT 9000 BR BKN005 BKN012 QNH3009INS BECMG 0318/0319 20009KT 9999 NSW SCT007 BKN012 BKN120 QNH3007INS TEMPO 0318/0320 FEW007 SCT012 BKN120 BECMG 0319/0320 20009KT 9999 SCT020 SCT095 BKN120 QNH2999INS BECMG 0407/0408 VRB06KT 4800 BR BKN004 BKN011 QNH3002INS BECMG 0420/0421 VRB06KT 8000 BR FEW004 OVC011 QNH3004INS TX26/0322Z TN18/0407Z LAST NO AMDS AFT 0401 NEXT 0519
KSAT 
19nm W 
031721Z 0318/0424 17006KT P6SM BKN020 FM031900 16008KT P6SM FEW035 SCT100 FM040600 17004KT 4SM BR BKN010 FM040900 VRB02KT 1SM BR OVC005 TEMPO 0411/0415 1/2SM FG OVC002 FM041600 19005KT 5SM BR BKN010 FM041800 17007KT P6SM SCT025
KSSF 
20nm W 
031721Z 0318/0418 18006KT P6SM BKN020 FM031900 16006KT P6SM FEW035 SCT100 FM040600 15003KT 4SM BR BKN010 FM040900 VRB02KT 1SM BR OVC005 FM041600 19005KT 5SM BR BKN010
NOTAMs
Click for the latest NOTAMs
NOTAMs are issued by the DoD/FAA and will open in a separate window not controlled by AirNav.

 

 
 

Would you like to see your business listed on this page?

 If your business provides an interesting product or service to pilots, flight crews, aircraft, or users of the Heritage Airfield, you should consider listing it here.  To start the listing process, click on the button below
 
Add a business
 

Other Pages about Heritage Airfield

www.heritageairpark.com
 
Update a link
 
Copyright © AirNav, LLC. All rights reserved. Privacy Policy  Contact